createdAt,value
2018-03-14T00:01:56.753Z,97.00
2018-03-14T00:04:25.335Z,97.00
2018-03-14T00:06:53.793Z,96.80
2018-03-14T00:09:22.764Z,96.90
2018-03-14T00:11:51.793Z,96.90
2018-03-14T00:14:20.768Z,97.40
2018-03-14T00:16:48.980Z,97.40
2018-03-14T00:19:17.222Z,96.80
2018-03-14T00:21:45.419Z,97.40
2018-03-14T00:24:14.387Z,97.50
2018-03-14T00:26:42.713Z,97.50
2018-03-14T00:29:10.916Z,97.50
2018-03-14T00:31:39.109Z,97.60
2018-03-14T00:34:07.384Z,97.40
2018-03-14T00:36:35.660Z,97.30
2018-03-14T00:39:04.031Z,97.10
2018-03-14T00:41:32.300Z,97.30
2018-03-14T00:44:00.538Z,97.30
2018-03-14T00:46:30.049Z,96.90
2018-03-14T00:48:58.278Z,97.10
2018-03-14T00:51:26.504Z,96.60
2018-03-14T00:53:54.722Z,96.90
2018-03-14T00:56:22.976Z,97.00
2018-03-14T00:58:51.181Z,96.90
2018-03-14T01:01:19.377Z,96.60
2018-03-14T01:03:48.349Z,96.70
2018-03-14T01:06:16.559Z,96.70
2018-03-14T01:08:44.821Z,97.00
2018-03-14T01:11:14.004Z,96.90
2018-03-14T01:13:43.004Z,97.00
2018-03-14T01:16:11.969Z,97.30
2018-03-14T01:18:40.419Z,97.30
2018-03-14T01:21:08.644Z,97.60
2018-03-14T01:23:36.801Z,97.40
2018-03-14T01:26:05.254Z,97.30
2018-03-14T01:28:33.432Z,97.40
2018-03-14T01:31:01.633Z,97.00
2018-03-14T01:33:29.852Z,97.00
2018-03-14T01:35:58.044Z,97.10
2018-03-14T01:38:26.245Z,97.20
2018-03-14T01:40:54.535Z,97.40
2018-03-14T01:43:22.726Z,97.50
2018-03-14T01:45:51.694Z,97.90
2018-03-14T01:48:20.034Z,97.90
2018-03-14T01:50:48.217Z,97.70
2018-03-14T01:53:28.373Z,97.70
2018-03-14T01:55:56.718Z,97.70
2018-03-14T01:58:25.744Z,97.80
2018-03-14T02:00:54.021Z,97.80
2018-03-14T02:03:22.229Z,97.60
2018-03-14T02:05:50.452Z,97.80
2018-03-14T02:08:18.668Z,97.20
2018-03-14T02:10:46.884Z,97.50
2018-03-14T02:13:15.880Z,97.40
2018-03-14T02:15:44.903Z,97.50
2018-03-14T02:18:13.192Z,97.40
2018-03-14T02:20:41.420Z,97.80
2018-03-14T02:23:10.468Z,97.50
2018-03-14T02:25:38.677Z,97.40
2018-03-14T02:28:06.879Z,97.60
2018-03-14T02:30:35.205Z,97.60
2018-03-14T02:33:03.409Z,97.60
2018-03-14T02:35:31.604Z,98.00
2018-03-14T02:37:59.861Z,98.50
2018-03-14T02:42:52.604Z,98.20
2018-03-14T02:45:20.881Z,98.20
2018-03-14T02:47:49.214Z,97.90
2018-03-14T02:50:18.825Z,98.10
2018-03-14T02:52:47.059Z,98.00
2018-03-14T02:55:15.288Z,98.20
2018-03-14T02:57:43.472Z,97.60
2018-03-14T03:00:11.746Z,97.40
2018-03-14T03:02:39.993Z,97.80
2018-03-14T03:05:08.432Z,97.70
2018-03-14T03:07:36.644Z,97.70
2018-03-14T03:10:04.883Z,97.50
2018-03-14T03:12:33.081Z,97.60
2018-03-14T03:15:02.100Z,97.80
2018-03-14T03:17:30.294Z,97.80
2018-03-14T03:19:58.515Z,98.00
2018-03-14T03:22:26.837Z,98.00
2018-03-14T03:24:55.008Z,98.00
2018-03-14T03:27:23.252Z,97.50
2018-03-14T03:29:52.273Z,97.90
2018-03-14T03:32:20.461Z,97.90
2018-03-14T03:34:48.671Z,97.90
2018-03-14T03:37:16.933Z,97.70
2018-03-14T03:39:45.151Z,98.00
2018-03-14T03:42:14.115Z,98.10
2018-03-14T03:44:43.536Z,98.10
2018-03-14T03:47:12.633Z,98.10
2018-03-14T03:49:41.612Z,98.00
2018-03-14T03:52:09.979Z,98.00
2018-03-14T03:54:38.224Z,97.80
2018-03-14T03:57:06.429Z,98.00
2018-03-14T03:59:34.660Z,97.50
2018-03-14T04:02:03.662Z,97.80
2018-03-14T04:04:31.904Z,97.80
2018-03-14T04:07:00.936Z,97.90
2018-03-14T04:09:29.144Z,97.90
2018-03-14T04:11:57.360Z,97.90
2018-03-14T04:14:26.381Z,97.90
2018-03-14T04:16:54.577Z,97.80
2018-03-14T04:19:22.780Z,98.00
2018-03-14T04:21:51.797Z,98.20
2018-03-14T04:24:20.080Z,98.20
2018-03-14T04:26:48.295Z,98.30
2018-03-14T04:29:16.504Z,98.10
2018-03-14T04:31:45.476Z,98.40
2018-03-14T04:34:13.684Z,98.40
2018-03-14T04:36:44.708Z,98.30
2018-03-14T04:39:13.034Z,98.30
2018-03-14T04:41:41.240Z,98.30
2018-03-14T04:44:09.511Z,98.30
2018-03-14T04:46:37.708Z,98.30
2018-03-14T04:49:06.732Z,98.40
2018-03-14T04:51:35.697Z,98.60
2018-03-14T04:54:04.686Z,98.50
2018-03-14T04:56:32.900Z,98.40
2018-03-14T04:59:01.422Z,97.90
2018-03-14T05:01:29.617Z,97.50
2018-03-14T05:03:57.847Z,97.50
2018-03-14T05:06:26.053Z,97.80
2018-03-14T05:08:54.280Z,98.10
2018-03-14T05:11:22.496Z,97.80
2018-03-14T05:13:50.692Z,97.90
2018-03-14T05:16:18.956Z,98.10
2018-03-14T05:18:47.255Z,98.40
2018-03-14T05:21:16.390Z,98.70
2018-03-14T05:23:44.633Z,98.70
2018-03-14T05:26:12.827Z,98.90
2018-03-14T05:28:41.077Z,99.00
2018-03-14T05:31:09.481Z,98.80
2018-03-14T05:33:38.452Z,98.50
2018-03-14T05:36:06.795Z,98.50
2018-03-14T05:38:35.005Z,98.60
2018-03-14T05:41:03.210Z,98.60
2018-03-14T05:43:31.828Z,98.70
2018-03-14T05:46:00.033Z,98.90
2018-03-14T05:48:28.226Z,98.20
2018-03-14T05:50:56.532Z,98.40
2018-03-14T05:53:24.753Z,98.40
2018-03-14T05:55:52.946Z,98.40
2018-03-14T05:58:21.272Z,98.40
2018-03-14T06:00:49.475Z,98.50
2018-03-14T06:03:17.681Z,98.50
2018-03-14T06:05:46.710Z,98.50
2018-03-14T06:08:14.904Z,98.50
2018-03-14T06:10:43.272Z,98.30
2018-03-14T06:13:11.638Z,98.30
2018-03-14T06:15:39.828Z,98.10
2018-03-14T06:18:08.030Z,98.30
2018-03-14T06:20:36.250Z,98.20
2018-03-14T06:23:05.274Z,97.90
2018-03-14T06:25:33.467Z,97.90
2018-03-14T06:28:02.922Z,98.00
2018-03-14T06:30:31.125Z,98.00
2018-03-14T06:32:59.324Z,98.20
2018-03-14T06:35:27.560Z,97.60
2018-03-14T06:37:55.748Z,97.80
2018-03-14T06:40:23.941Z,97.40
2018-03-14T06:42:52.192Z,97.70
2018-03-14T06:45:20.456Z,98.10
2018-03-14T06:47:48.648Z,97.50
2018-03-14T06:50:16.976Z,97.90
2018-03-14T06:52:45.997Z,97.30
2018-03-14T06:55:14.209Z,97.30
2018-03-14T06:57:42.464Z,97.30
2018-03-14T07:00:22.293Z,97.20
2018-03-14T07:03:03.073Z,97.00
2018-03-14T07:05:42.948Z,97.00
2018-03-14T07:08:12.055Z,97.00
2018-03-14T07:10:40.269Z,96.80
2018-03-14T07:13:09.267Z,97.80
2018-03-14T07:15:38.256Z,97.30
2018-03-14T07:18:07.329Z,97.80
2018-03-14T07:20:35.664Z,97.80
2018-03-14T07:23:03.941Z,97.40
2018-03-14T07:25:32.133Z,97.40
2018-03-14T07:28:00.347Z,97.60
2018-03-14T07:30:29.394Z,97.40
2018-03-14T07:32:57.631Z,97.40
2018-03-14T07:35:26.737Z,97.70
2018-03-14T07:37:54.998Z,97.70
2018-03-14T07:40:23.180Z,97.90
2018-03-14T07:42:51.459Z,97.80
2018-03-14T07:45:19.654Z,97.90
2018-03-14T07:47:48.721Z,97.90
2018-03-14T07:50:17.831Z,97.50
2018-03-14T07:52:46.178Z,97.50
2018-03-14T07:55:14.453Z,97.10
2018-03-14T07:57:43.424Z,97.10
2018-03-14T08:00:11.648Z,97.10
2018-03-14T08:02:39.857Z,96.90
2018-03-14T08:05:08.171Z,97.00
2018-03-14T08:07:36.461Z,97.10
2018-03-14T08:10:05.498Z,97.20
2018-03-14T08:12:33.685Z,97.20
2018-03-14T08:15:02.027Z,96.90
2018-03-14T08:17:30.393Z,97.20
2018-03-14T08:19:59.357Z,96.70
2018-03-14T08:22:27.654Z,96.70
2018-03-14T08:24:56.652Z,97.30
2018-03-14T08:27:25.648Z,96.70
2018-03-14T08:29:54.641Z,96.80
2018-03-14T08:32:23.653Z,96.90
2018-03-14T08:34:51.984Z,96.60
2018-03-14T08:37:20.362Z,96.20
2018-03-14T08:39:48.593Z,96.20
2018-03-14T08:42:16.836Z,96.30
2018-03-14T08:44:45.849Z,96.10
2018-03-14T08:47:14.138Z,96.10
2018-03-14T08:49:42.381Z,95.90
2018-03-14T08:52:11.409Z,96.00
2018-03-14T08:54:40.893Z,96.00
2018-03-14T08:57:09.125Z,95.90
2018-03-14T08:59:37.432Z,96.10
2018-03-14T09:02:06.457Z,95.70
2018-03-14T09:04:34.669Z,95.70
2018-03-14T09:07:02.941Z,95.00
2018-03-14T09:09:31.166Z,95.50
2018-03-14T09:11:59.416Z,95.10
2018-03-14T09:14:27.732Z,95.00
2018-03-14T09:16:55.945Z,95.10
2018-03-14T09:19:24.187Z,95.20
2018-03-14T09:21:52.600Z,94.30
2018-03-14T09:24:21.009Z,94.90
2018-03-14T09:26:49.213Z,94.00
2018-03-14T09:29:17.532Z,94.80
2018-03-14T09:31:45.733Z,94.90
2018-03-14T09:34:14.016Z,94.30
2018-03-14T09:36:43.040Z,94.10
2018-03-14T09:39:11.311Z,94.10
2018-03-14T09:41:39.521Z,94.00
2018-03-14T09:44:07.798Z,93.70
2018-03-14T09:46:35.995Z,92.60
2018-03-14T09:49:04.205Z,93.30
2018-03-14T09:51:32.481Z,92.90
2018-03-14T09:54:00.713Z,93.50
2018-03-14T09:56:28.968Z,94.10
2018-03-14T09:58:57.197Z,94.40
2018-03-14T10:01:26.176Z,93.30
2018-03-14T10:03:54.458Z,93.30
2018-03-14T10:06:22.689Z,93.70
2018-03-14T10:08:50.992Z,94.00
2018-03-14T10:11:19.398Z,93.90
2018-03-14T10:13:48.388Z,94.70
2018-03-14T10:16:16.682Z,94.70
2018-03-14T10:18:44.927Z,93.60
2018-03-14T10:21:13.193Z,94.00
2018-03-14T10:23:41.443Z,94.30
2018-03-14T10:26:09.652Z,95.00
2018-03-14T10:28:37.913Z,94.90
2018-03-14T10:31:06.130Z,93.70
2018-03-14T10:33:34.348Z,94.20
2018-03-14T10:36:02.584Z,92.60
2018-03-14T10:38:30.789Z,92.90
2018-03-14T10:40:59.085Z,93.50
2018-03-14T10:43:27.401Z,94.50
2018-03-14T10:45:56.478Z,93.50
2018-03-14T10:48:24.761Z,93.50
2018-03-14T10:50:53.017Z,94.70
2018-03-14T10:53:21.290Z,95.00
2018-03-14T10:55:49.502Z,93.90
2018-03-14T10:58:18.909Z,94.20
2018-03-14T11:00:53.600Z,94.30
2018-03-14T11:03:22.046Z,94.30
2018-03-14T11:05:50.334Z,94.00
2018-03-14T11:08:18.564Z,93.60
2018-03-14T11:10:46.949Z,93.80
2018-03-14T11:13:15.196Z,94.10
2018-03-14T11:15:43.377Z,93.60
2018-03-14T11:18:11.805Z,92.70
2018-03-14T11:20:40.741Z,94.10
2018-03-14T11:23:08.929Z,94.10
2018-03-14T11:25:38.143Z,93.30
2018-03-14T11:28:06.299Z,93.30
2018-03-14T11:30:34.484Z,94.50
2018-03-14T11:33:03.511Z,94.10
2018-03-14T11:35:31.729Z,94.20
2018-03-14T11:37:59.983Z,93.60
2018-03-14T11:40:29.527Z,92.00
2018-03-14T11:42:57.717Z,92.00
2018-03-14T11:45:26.672Z,93.50
2018-03-14T11:47:55.070Z,93.40
2018-03-14T11:50:23.299Z,92.50
2018-03-14T11:52:51.488Z,92.70
2018-03-14T11:55:19.848Z,93.20
2018-03-14T11:57:48.108Z,92.90
2018-03-14T12:00:16.458Z,93.00
2018-03-14T12:02:45.512Z,91.80
2018-03-14T12:05:13.710Z,91.80
2018-03-14T12:07:41.949Z,91.80
2018-03-14T12:10:10.180Z,91.80
2018-03-14T12:12:39.128Z,93.00
2018-03-14T12:15:07.402Z,93.00
2018-03-14T12:17:35.634Z,92.20
2018-03-14T12:20:04.657Z,90.00
2018-03-14T12:22:32.968Z,90.00
2018-03-14T12:25:01.300Z,89.40
2018-03-14T12:27:29.536Z,90.60
2018-03-14T12:29:57.771Z,88.90
2018-03-14T12:32:26.012Z,89.30
2018-03-14T12:34:55.068Z,91.00
2018-03-14T12:37:23.329Z,91.00
2018-03-14T12:39:51.774Z,90.80
2018-03-14T12:42:20.997Z,91.50
2018-03-14T12:44:49.385Z,91.50
2018-03-14T12:47:17.664Z,91.00
2018-03-14T12:49:46.056Z,91.30
2018-03-14T12:52:14.417Z,92.10
2018-03-14T12:54:42.896Z,90.90
2018-03-14T12:57:11.498Z,91.40
2018-03-14T12:59:39.647Z,91.80
2018-03-14T13:02:07.913Z,91.80
2018-03-14T13:04:36.110Z,91.60
2018-03-14T13:07:04.336Z,91.70
2018-03-14T13:09:33.380Z,92.60
2018-03-14T13:12:01.635Z,92.60
2018-03-14T13:14:29.908Z,92.60
2018-03-14T13:16:58.508Z,92.00
2018-03-14T13:19:27.461Z,91.00
2018-03-14T13:21:56.424Z,90.80
2018-03-14T13:24:24.736Z,90.80
2018-03-14T13:26:53.184Z,91.50
2018-03-14T13:29:21.435Z,90.80
2018-03-14T13:31:49.665Z,90.90
2018-03-14T13:34:18.742Z,90.70
2018-03-14T13:36:46.948Z,90.70
2018-03-14T13:39:15.193Z,91.10
2018-03-14T13:41:43.404Z,91.20
2018-03-14T13:44:11.693Z,91.00
2018-03-14T13:46:40.006Z,91.50
2018-03-14T13:49:08.295Z,90.40
2018-03-14T13:51:36.640Z,90.70
2018-03-14T13:54:04.902Z,91.10
2018-03-14T13:56:33.114Z,90.00
2018-03-14T13:59:01.310Z,90.50
2018-03-14T14:01:30.824Z,88.00
2018-03-14T14:03:59.296Z,87.90
2018-03-14T14:06:27.656Z,88.70
2018-03-14T14:08:55.933Z,87.40
2018-03-14T14:11:24.125Z,86.20
2018-03-14T14:13:53.088Z,86.00
2018-03-14T14:16:21.449Z,86.00
2018-03-14T14:18:49.624Z,85.50
2018-03-14T14:21:17.968Z,87.20
2018-03-14T14:23:47.104Z,88.80
2018-03-14T14:26:15.495Z,88.80
2018-03-14T14:28:43.680Z,87.40
2018-03-14T14:31:11.996Z,86.20
2018-03-14T14:33:40.178Z,89.90
2018-03-14T14:36:08.401Z,88.30
2018-03-14T14:38:36.625Z,87.90
2018-03-14T14:41:04.860Z,86.20
2018-03-14T14:43:33.106Z,88.00
2018-03-14T14:46:01.335Z,87.50
2018-03-14T14:48:30.310Z,87.10
2018-03-14T14:50:58.533Z,87.00
2018-03-14T14:53:28.161Z,87.50
2018-03-14T14:55:56.390Z,87.40
2018-03-14T14:58:25.375Z,89.20
2018-03-14T15:00:54.352Z,88.00
2018-03-14T15:03:22.593Z,88.00
2018-03-14T15:05:50.998Z,88.70
2018-03-14T15:08:19.208Z,89.60
2018-03-14T15:10:47.416Z,88.20
2018-03-14T15:13:15.613Z,88.50
2018-03-14T15:15:45.455Z,86.00
2018-03-14T15:18:14.469Z,88.30
2018-03-14T15:20:42.663Z,88.30
2018-03-14T15:23:10.969Z,87.10
2018-03-14T15:25:39.169Z,87.00
2018-03-14T15:28:07.425Z,88.00
2018-03-14T15:30:35.765Z,87.60
2018-03-14T15:33:04.701Z,87.30
2018-03-14T15:38:08.725Z,88.80
2018-03-14T15:40:36.921Z,88.80
2018-03-14T15:43:06.171Z,90.10
2018-03-14T15:45:35.124Z,90.40
2018-03-14T15:48:03.317Z,90.40
2018-03-14T15:50:31.522Z,89.90
2018-03-14T15:52:59.759Z,87.40
2018-03-14T15:55:28.767Z,87.50
2018-03-14T15:57:57.069Z,87.50
2018-03-14T16:00:25.548Z,88.30
2018-03-14T16:02:54.678Z,87.80
2018-03-14T16:05:22.880Z,87.80
2018-03-14T16:07:52.776Z,86.40
2018-03-14T16:10:21.808Z,87.30
2018-03-14T16:12:50.323Z,87.30
2018-03-14T16:15:18.599Z,88.50
2018-03-14T16:17:46.965Z,89.80
2018-03-14T16:20:15.166Z,89.50
2018-03-14T16:22:43.597Z,89.80
2018-03-14T16:25:11.937Z,89.60
2018-03-14T16:27:40.186Z,89.30
2018-03-14T16:30:08.442Z,88.20
2018-03-14T16:32:37.051Z,87.90
2018-03-14T16:35:05.734Z,88.20
2018-03-14T16:37:33.920Z,88.10
2018-03-14T16:40:02.309Z,87.40
2018-03-14T16:42:30.565Z,86.60
2018-03-14T16:44:59.697Z,85.40
2018-03-14T16:47:29.041Z,85.50
2018-03-14T16:49:57.231Z,85.50
2018-03-14T16:52:25.450Z,85.50
2018-03-14T16:54:54.430Z,87.50
2018-03-14T17:00:03.344Z,90.00
2018-03-14T17:02:31.621Z,89.90
2018-03-14T17:04:59.912Z,90.90
2018-03-14T17:07:29.915Z,89.50
2018-03-14T17:09:58.174Z,89.40
2018-03-14T17:12:26.387Z,89.90
2018-03-14T17:14:54.630Z,90.30
2018-03-14T17:17:22.841Z,89.90
2018-03-14T17:19:51.110Z,89.90
2018-03-14T17:22:19.704Z,89.40
2018-03-14T17:24:47.986Z,88.90
2018-03-14T17:27:16.213Z,90.10
2018-03-14T17:29:44.802Z,90.50
2018-03-14T17:32:13.032Z,89.30
2018-03-14T17:34:41.562Z,89.70
2018-03-14T17:37:13.126Z,89.40
2018-03-14T17:39:41.542Z,90.00
2018-03-14T17:42:09.792Z,90.00
2018-03-14T17:44:38.169Z,89.30
2018-03-14T17:47:06.396Z,89.80
2018-03-14T17:49:34.679Z,90.00
2018-03-14T17:52:02.942Z,88.30
2018-03-14T17:54:32.216Z,87.80
2018-03-14T17:57:00.585Z,86.90
2018-03-14T17:59:29.199Z,88.40
2018-03-14T18:01:57.478Z,89.80
2018-03-14T18:04:25.675Z,89.80
2018-03-14T18:06:54.807Z,90.20
2018-03-14T18:09:23.823Z,90.30
2018-03-14T18:11:52.096Z,90.20
2018-03-14T18:14:20.288Z,91.40
2018-03-14T18:16:48.597Z,91.90
2018-03-14T18:19:17.593Z,93.00
2018-03-14T18:21:46.654Z,93.00
2018-03-14T18:24:14.871Z,93.00
2018-03-14T18:26:43.853Z,93.30
2018-03-14T18:29:12.974Z,93.30
2018-03-14T18:31:41.940Z,93.40
2018-03-14T18:34:11.444Z,93.70
2018-03-14T18:36:40.457Z,93.60
2018-03-14T18:39:08.727Z,93.60
2018-03-14T18:41:37.695Z,93.60
2018-03-14T18:44:05.980Z,93.60
2018-03-14T18:46:34.173Z,94.60
2018-03-14T18:49:02.369Z,94.20
2018-03-14T18:51:30.709Z,93.90
2018-03-14T18:53:59.681Z,94.40
2018-03-14T18:56:27.891Z,94.40
2018-03-14T18:58:56.957Z,95.20
2018-03-14T19:01:25.196Z,95.20
2018-03-14T19:03:53.407Z,95.00
2018-03-14T19:06:22.893Z,95.20
2018-03-14T19:08:51.189Z,95.20
2018-03-14T19:11:19.456Z,95.20
2018-03-14T19:13:47.681Z,95.20
2018-03-14T19:16:15.921Z,94.80
2018-03-14T19:18:44.165Z,95.20
2018-03-14T19:21:12.484Z,95.10
2018-03-14T19:23:41.461Z,95.40
2018-03-14T19:26:09.653Z,95.40
2018-03-14T19:28:39.318Z,95.50
2018-03-14T19:31:07.489Z,95.40
2018-03-14T19:33:36.050Z,95.80
2018-03-14T19:36:04.367Z,95.80
2018-03-14T19:38:32.884Z,96.00
2018-03-14T19:41:01.873Z,95.80
2018-03-14T19:43:30.902Z,95.80
2018-03-14T19:45:59.912Z,95.80
2018-03-14T19:48:28.278Z,96.00
2018-03-14T19:50:57.296Z,95.90
2018-03-14T19:53:26.423Z,95.90
2018-03-14T19:55:54.864Z,95.80
2018-03-14T19:58:23.222Z,95.90
2018-03-14T20:00:52.925Z,95.80
2018-03-14T20:03:23.014Z,95.80
2018-03-14T20:05:52.084Z,96.00
2018-03-14T20:08:20.517Z,96.00
2018-03-14T20:10:49.479Z,96.20
2018-03-14T20:13:17.761Z,96.20
2018-03-14T20:15:46.823Z,96.30
2018-03-14T20:18:15.110Z,96.30
2018-03-14T20:20:43.558Z,96.50
2018-03-14T20:23:11.829Z,96.50
2018-03-14T20:25:40.420Z,96.20
2018-03-14T20:28:09.285Z,96.60
2018-03-14T20:30:37.754Z,96.30
2018-03-14T20:33:06.070Z,96.20
2018-03-14T20:35:34.630Z,96.00
2018-03-14T20:38:02.933Z,96.10
2018-03-14T20:40:31.214Z,96.30
2018-03-14T20:42:59.518Z,96.20
2018-03-14T20:45:27.803Z,96.50
2018-03-14T20:47:56.021Z,96.80
2018-03-14T20:50:25.188Z,96.80
2018-03-14T20:52:53.580Z,96.80
2018-03-14T20:55:22.097Z,97.10
2018-03-14T20:57:50.472Z,97.20
2018-03-14T21:00:19.037Z,97.30
2018-03-14T21:02:48.948Z,97.80
2018-03-14T21:05:17.229Z,97.50
2018-03-14T21:07:45.729Z,97.60
2018-03-14T21:10:14.738Z,97.60
2018-03-14T21:12:42.994Z,97.60
2018-03-14T21:15:14.337Z,97.80
2018-03-14T21:17:43.920Z,97.80
2018-03-14T21:20:12.143Z,97.80
2018-03-14T21:22:40.418Z,98.10
2018-03-14T21:25:09.463Z,97.70
2018-03-14T21:27:37.792Z,97.70
2018-03-14T21:30:05.993Z,97.80
2018-03-14T21:32:34.444Z,97.70
2018-03-14T21:35:02.665Z,97.70
2018-03-14T21:37:30.974Z,98.00
2018-03-14T21:40:00.107Z,98.00
2018-03-14T21:42:28.369Z,97.90
2018-03-14T21:44:56.608Z,97.80
2018-03-14T21:47:24.887Z,97.80
2018-03-14T21:49:53.120Z,98.00
2018-03-14T21:52:21.372Z,98.10
2018-03-14T21:54:49.650Z,98.40
2018-03-14T21:57:19.629Z,98.10
2018-03-14T21:59:49.646Z,98.20
2018-03-14T22:02:18.204Z,98.20
2018-03-14T22:04:47.256Z,98.20
2018-03-14T22:07:15.799Z,98.20
2018-03-14T22:09:45.333Z,98.20
2018-03-14T22:12:13.825Z,98.20
2018-03-14T22:14:42.049Z,98.40
2018-03-14T22:17:11.094Z,97.90
2018-03-14T22:19:39.457Z,97.90
2018-03-14T22:22:08.633Z,98.20
2018-03-14T22:24:36.927Z,97.90
2018-03-14T22:27:05.739Z,97.90
2018-03-14T22:29:34.374Z,98.00
2018-03-14T22:32:03.496Z,98.40
2018-03-14T22:34:31.721Z,98.40
2018-03-14T22:36:59.972Z,98.60
2018-03-14T22:39:28.457Z,98.50
2018-03-14T22:41:57.605Z,98.40
2018-03-14T22:44:26.936Z,98.60
2018-03-14T22:46:56.839Z,98.60
2018-03-14T22:49:25.060Z,98.30
2018-03-14T22:51:54.147Z,98.10
2018-03-14T22:54:22.625Z,98.10
2018-03-14T22:56:51.644Z,98.20
2018-03-14T22:59:21.310Z,98.30
2018-03-14T23:01:49.838Z,98.40
2018-03-14T23:04:18.089Z,98.40
2018-03-14T23:06:47.288Z,98.10
2018-03-14T23:09:16.337Z,98.40
2018-03-14T23:11:44.600Z,98.40
2018-03-14T23:14:12.968Z,98.40
2018-03-14T23:16:41.671Z,98.50
2018-03-14T23:19:09.933Z,98.60
2018-03-14T23:21:38.292Z,98.70
2018-03-14T23:24:07.120Z,98.60
2018-03-14T23:26:36.608Z,98.60
2018-03-14T23:29:06.154Z,98.80
2018-03-14T23:31:34.675Z,98.90
2018-03-14T23:34:03.276Z,98.80
2018-03-14T23:36:31.709Z,98.50
2018-03-14T23:39:00.164Z,98.50
2018-03-14T23:41:30.614Z,98.40
2018-03-14T23:43:59.301Z,98.40
2018-03-14T23:46:27.643Z,98.20
2018-03-14T23:48:55.942Z,98.40
2018-03-14T23:51:25.244Z,98.50
2018-03-14T23:53:54.383Z,98.30
2018-03-14T23:56:22.724Z,98.30
2018-03-14T23:58:51.037Z,98.50
